createdAt,value
2022-08-31T00:02:41.049Z,20.24
2022-08-31T00:05:10.228Z,20.20
2022-08-31T00:07:37.265Z,20.24
2022-08-31T00:10:14.487Z,20.24
2022-08-31T00:12:42.655Z,20.25
2022-08-31T00:15:13.656Z,20.24
2022-08-31T00:17:41.007Z,20.20
2022-08-31T00:20:09.228Z,20.15
2022-08-31T00:22:55.803Z,20.07
2022-08-31T00:25:24.090Z,19.99
2022-08-31T00:27:50.883Z,19.90
2022-08-31T00:30:17.931Z,19.82
2022-08-31T00:32:44.498Z,19.80
2022-08-31T00:35:11.243Z,19.86
2022-08-31T00:37:37.712Z,19.91
2022-08-31T00:40:05.127Z,19.90
2022-08-31T00:42:31.720Z,19.88
2022-08-31T00:44:58.272Z,19.87
2022-08-31T00:47:24.733Z,19.84
2022-08-31T00:49:52.737Z,19.84
2022-08-31T00:52:27.327Z,19.83
2022-08-31T00:55:02.370Z,19.80
2022-08-31T00:57:34.424Z,19.80
2022-08-31T01:00:05.120Z,19.78
2022-08-31T01:02:31.808Z,19.77
2022-08-31T01:04:58.435Z,19.76
2022-08-31T01:07:25.584Z,19.77
2022-08-31T01:09:55.429Z,19.75
2022-08-31T01:12:23.675Z,19.73
2022-08-31T01:14:50.356Z,19.71
2022-08-31T01:17:17.639Z,19.68
2022-08-31T01:19:57.731Z,19.62
2022-08-31T01:22:53.402Z,19.62
2022-08-31T01:25:20.291Z,19.59
2022-08-31T01:27:47.067Z,19.61
2022-08-31T01:30:22.200Z,19.59
2022-08-31T01:32:49.173Z,19.58
2022-08-31T01:35:15.815Z,19.49
2022-08-31T01:37:42.479Z,19.51
2022-08-31T01:40:10.304Z,19.44
2022-08-31T01:42:36.879Z,19.43
2022-08-31T01:45:05.923Z,19.41
2022-08-31T01:47:32.764Z,19.41
2022-08-31T01:49:59.230Z,19.41
2022-08-31T01:52:27.954Z,19.40
2022-08-31T01:54:55.558Z,19.38
2022-08-31T01:57:33.674Z,19.35
2022-08-31T02:00:05.503Z,19.27
2022-08-31T02:02:32.099Z,19.30
2022-08-31T02:04:59.054Z,19.28
2022-08-31T02:07:25.935Z,19.30
2022-08-31T02:09:53.757Z,19.25
2022-08-31T02:12:20.302Z,19.19
2022-08-31T02:14:46.786Z,19.20
2022-08-31T02:17:13.440Z,19.15
2022-08-31T02:19:39.903Z,19.08
2022-08-31T02:22:07.299Z,19.11
2022-08-31T02:24:33.770Z,19.07
2022-08-31T02:27:00.319Z,19.03
2022-08-31T02:29:26.889Z,19.03
2022-08-31T02:31:53.435Z,19.00
2022-08-31T02:34:19.920Z,19.02
2022-08-31T02:36:46.404Z,18.96
2022-08-31T02:39:13.658Z,18.94
2022-08-31T02:41:42.101Z,18.96
2022-08-31T02:44:08.615Z,18.95
2022-08-31T02:46:35.463Z,18.92
2022-08-31T02:49:02.624Z,18.91
2022-08-31T02:51:29.560Z,18.95
2022-08-31T02:53:56.115Z,18.92
2022-08-31T02:56:23.741Z,18.91
2022-08-31T02:58:54.824Z,18.93
2022-08-31T03:01:23.279Z,18.94
2022-08-31T03:03:50.430Z,18.90
2022-08-31T03:06:18.425Z,18.91
2022-08-31T03:08:45.232Z,18.89
2022-08-31T03:11:12.433Z,18.89
2022-08-31T03:13:40.470Z,18.86
2022-08-31T03:16:08.169Z,18.83
2022-08-31T03:18:34.980Z,18.85
2022-08-31T03:21:02.398Z,18.85
2022-08-31T03:23:29.190Z,18.86
2022-08-31T03:25:55.862Z,18.77
2022-08-31T03:28:23.060Z,18.76
2022-08-31T03:30:49.705Z,18.69
2022-08-31T03:33:16.331Z,18.69
2022-08-31T03:35:44.148Z,18.69
2022-08-31T03:38:12.753Z,18.70
2022-08-31T03:40:41.005Z,18.68
2022-08-31T03:43:11.487Z,18.64
2022-08-31T03:45:40.422Z,18.66
2022-08-31T03:48:12.028Z,18.71
2022-08-31T03:50:40.950Z,18.63
2022-08-31T03:53:08.938Z,18.57
2022-08-31T03:55:38.839Z,18.58
2022-08-31T03:58:06.511Z,18.58
2022-08-31T04:00:33.684Z,18.56
2022-08-31T04:03:01.514Z,18.53
2022-08-31T04:05:30.103Z,18.49
2022-08-31T04:07:57.048Z,18.48
2022-08-31T04:10:23.849Z,18.49
2022-08-31T04:12:50.931Z,18.49
2022-08-31T04:15:18.498Z,18.46
2022-08-31T04:17:47.758Z,18.46
2022-08-31T04:20:14.393Z,18.40
2022-08-31T04:22:40.976Z,18.36
2022-08-31T04:25:10.150Z,18.31
2022-08-31T04:27:38.190Z,18.34
2022-08-31T04:30:07.685Z,18.33
2022-08-31T04:32:35.450Z,18.31
2022-08-31T04:35:02.282Z,18.24
2022-08-31T04:37:29.707Z,18.24
2022-08-31T04:39:56.979Z,18.20
2022-08-31T04:42:26.168Z,18.17
2022-08-31T04:44:52.669Z,18.16
2022-08-31T04:47:20.327Z,18.14
2022-08-31T04:49:47.742Z,18.11
2022-08-31T04:52:14.334Z,18.12
2022-08-31T04:54:40.819Z,18.08
2022-08-31T04:57:07.603Z,18.10
2022-08-31T04:59:34.094Z,18.08
2022-08-31T05:02:00.685Z,18.08
2022-08-31T05:04:29.032Z,18.07
2022-08-31T05:06:56.061Z,18.05
2022-08-31T05:09:23.653Z,17.98
2022-08-31T05:11:51.964Z,18.01
2022-08-31T05:14:18.890Z,18.00
2022-08-31T05:16:45.869Z,18.00
2022-08-31T05:19:12.966Z,17.99
2022-08-31T05:21:42.108Z,18.03
2022-08-31T05:24:21.539Z,17.99
2022-08-31T05:26:54.639Z,17.98
2022-08-31T05:29:24.530Z,17.98
2022-08-31T05:31:52.680Z,17.97
2022-08-31T05:34:20.940Z,17.95
2022-08-31T05:36:52.248Z,17.95
2022-08-31T05:39:19.579Z,17.84
2022-08-31T05:41:47.245Z,17.86
2022-08-31T05:44:14.655Z,17.84
2022-08-31T05:46:41.836Z,17.84
2022-08-31T05:49:09.394Z,17.88
2022-08-31T05:51:38.895Z,17.85
2022-08-31T05:54:07.542Z,17.83
2022-08-31T05:56:34.780Z,17.87
2022-08-31T05:59:01.511Z,17.85
2022-08-31T06:01:34.287Z,17.84
2022-08-31T06:04:02.200Z,17.82
2022-08-31T06:06:29.001Z,17.83
2022-08-31T06:08:57.336Z,17.84
2022-08-31T06:11:27.503Z,17.83
2022-08-31T06:13:56.401Z,17.90
2022-08-31T06:16:23.318Z,17.92
2022-08-31T06:18:50.914Z,17.89
2022-08-31T06:21:23.996Z,17.84
2022-08-31T06:23:52.851Z,17.87
2022-08-31T06:26:21.370Z,17.88
2022-08-31T06:28:51.241Z,17.87
2022-08-31T06:31:35.083Z,17.92
2022-08-31T06:34:03.003Z,17.95
2022-08-31T06:36:31.540Z,17.95
2022-08-31T06:39:00.179Z,18.00
2022-08-31T06:41:32.190Z,18.05
2022-08-31T06:44:05.668Z,18.07
2022-08-31T06:46:33.234Z,18.12
2022-08-31T06:48:59.927Z,18.12
2022-08-31T06:51:27.068Z,18.16
2022-08-31T06:53:53.970Z,18.15
2022-08-31T06:56:23.842Z,18.18
2022-08-31T06:58:54.120Z,18.21
2022-08-31T07:01:35.986Z,18.24
2022-08-31T07:04:07.065Z,18.25
2022-08-31T07:06:43.019Z,18.27
2022-08-31T07:09:12.460Z,18.33
2022-08-31T07:11:44.502Z,18.36
2022-08-31T07:14:13.967Z,18.40
2022-08-31T07:16:42.491Z,18.46
2022-08-31T07:19:10.033Z,18.52
2022-08-31T07:21:43.437Z,18.51
2022-08-31T07:24:11.410Z,18.53
2022-08-31T07:26:42.404Z,18.56
2022-08-31T07:29:10.188Z,18.60
2022-08-31T07:31:43.935Z,18.59
2022-08-31T07:34:11.784Z,18.61
2022-08-31T07:36:58.850Z,18.67
2022-08-31T07:39:45.173Z,18.72
2022-08-31T07:42:14.100Z,18.73
2022-08-31T07:44:43.507Z,18.75
2022-08-31T07:47:22.501Z,18.81
2022-08-31T07:49:52.604Z,18.84
2022-08-31T07:52:24.098Z,18.85
2022-08-31T07:54:52.523Z,18.87
2022-08-31T07:57:20.087Z,18.87
2022-08-31T07:59:49.569Z,18.90
2022-08-31T08:02:17.648Z,18.88
2022-08-31T08:04:44.325Z,18.87
2022-08-31T08:07:12.393Z,18.88
2022-08-31T08:09:38.973Z,18.89
2022-08-31T08:12:06.415Z,18.88
2022-08-31T08:14:39.687Z,18.88
2022-08-31T08:17:07.828Z,18.89
2022-08-31T08:19:34.562Z,18.89
2022-08-31T08:22:03.435Z,18.91
2022-08-31T08:24:31.629Z,18.92
2022-08-31T08:26:59.437Z,18.93
2022-08-31T08:29:26.741Z,18.94
2022-08-31T08:31:54.315Z,18.94
2022-08-31T08:34:29.607Z,18.93
2022-08-31T08:36:59.256Z,18.96
2022-08-31T08:39:25.868Z,19.05
2022-08-31T08:41:55.868Z,19.08
2022-08-31T08:44:26.515Z,19.14
2022-08-31T08:46:56.165Z,19.18
2022-08-31T08:49:31.052Z,19.25
2022-08-31T08:52:03.326Z,19.30
2022-08-31T08:54:33.476Z,19.35
2022-08-31T08:57:06.646Z,19.37
2022-08-31T08:59:33.381Z,19.37
2022-08-31T09:02:04.997Z,19.43
2022-08-31T09:04:44.136Z,19.51
2022-08-31T09:07:27.141Z,19.63
2022-08-31T09:09:59.567Z,19.73
2022-08-31T09:13:01.639Z,19.74
2022-08-31T09:15:38.836Z,19.72
2022-08-31T09:18:15.186Z,19.75
2022-08-31T09:20:41.688Z,19.77
2022-08-31T09:23:09.740Z,19.77
2022-08-31T09:25:44.793Z,19.80
2022-08-31T09:28:15.184Z,19.80
2022-08-31T09:30:44.629Z,19.85
2022-08-31T09:33:35.700Z,19.85
2022-08-31T09:36:20.030Z,19.85
2022-08-31T09:38:47.155Z,19.88
2022-08-31T09:41:22.569Z,19.89
2022-08-31T09:43:50.060Z,19.95
2022-08-31T09:46:32.810Z,20.04
2022-08-31T09:49:03.148Z,20.18
2022-08-31T09:51:38.596Z,20.21
2022-08-31T09:54:45.937Z,20.20
2022-08-31T09:57:13.887Z,20.24
2022-08-31T09:59:49.295Z,20.30
2022-08-31T10:02:22.766Z,20.29
2022-08-31T10:04:55.417Z,20.55
2022-08-31T10:07:44.232Z,20.52
2022-08-31T10:10:30.982Z,20.66
2022-08-31T10:13:27.420Z,20.74
2022-08-31T10:16:00.069Z,20.90
2022-08-31T10:18:39.399Z,20.91
2022-08-31T10:21:10.548Z,20.85
2022-08-31T10:23:53.986Z,20.83
2022-08-31T10:26:36.564Z,20.83
2022-08-31T10:29:19.126Z,20.89
2022-08-31T10:31:53.634Z,20.92
2022-08-31T10:34:46.690Z,20.95
2022-08-31T10:37:24.899Z,21.01
2022-08-31T10:39:58.472Z,21.12
2022-08-31T10:42:30.108Z,21.22
2022-08-31T10:45:09.147Z,21.23
2022-08-31T10:47:41.514Z,21.41
2022-08-31T10:50:10.847Z,21.43
2022-08-31T10:52:49.290Z,21.48
2022-08-31T10:55:33.057Z,21.42
2022-08-31T10:58:08.692Z,21.40
2022-08-31T11:00:49.504Z,21.39
2022-08-31T11:03:37.457Z,21.45
2022-08-31T11:06:10.245Z,21.50
2022-08-31T11:09:01.180Z,21.54
2022-08-31T11:11:42.538Z,21.51
2022-08-31T11:14:29.049Z,21.49
2022-08-31T11:17:29.902Z,21.61
2022-08-31T11:20:00.000Z,21.62
2022-08-31T11:22:50.715Z,21.69
2022-08-31T11:26:16.168Z,21.77
2022-08-31T11:29:01.560Z,21.89
2022-08-31T11:31:31.165Z,21.92
2022-08-31T11:34:17.091Z,21.97
2022-08-31T11:36:50.725Z,21.92
2022-08-31T11:39:35.544Z,21.91
2022-08-31T11:42:12.296Z,21.88
2022-08-31T11:44:41.990Z,21.86
2022-08-31T11:47:14.476Z,21.83
2022-08-31T11:49:45.598Z,21.83
2022-08-31T11:52:21.980Z,21.82
2022-08-31T11:54:50.259Z,21.87
2022-08-31T11:57:24.792Z,21.90
2022-08-31T11:59:54.166Z,21.84
2022-08-31T12:02:20.802Z,21.89
2022-08-31T12:04:48.001Z,21.90
2022-08-31T12:07:29.310Z,21.96
2022-08-31T12:10:14.644Z,21.98
2022-08-31T12:13:19.992Z,22.02
2022-08-31T12:16:12.401Z,22.16
2022-08-31T12:19:35.750Z,22.21
2022-08-31T12:22:40.741Z,22.25
2022-08-31T12:25:34.462Z,22.20
2022-08-31T12:28:15.698Z,22.22
2022-08-31T12:30:51.472Z,22.21
2022-08-31T12:33:21.327Z,22.18
2022-08-31T12:35:49.636Z,22.13
2022-08-31T12:38:22.872Z,22.15
2022-08-31T12:40:55.110Z,22.10
2022-08-31T12:43:32.165Z,22.10
2022-08-31T12:46:01.803Z,22.05
2022-08-31T12:49:04.943Z,22.06
2022-08-31T12:51:47.009Z,22.09
2022-08-31T12:54:38.803Z,22.12
2022-08-31T12:57:42.594Z,22.07
2022-08-31T13:00:26.018Z,22.06
2022-08-31T13:03:06.091Z,22.05
2022-08-31T13:05:36.885Z,22.10
2022-08-31T13:08:23.763Z,22.11
2022-08-31T13:10:50.459Z,22.14
2022-08-31T13:13:26.152Z,22.33
2022-08-31T13:15:59.726Z,22.61
2022-08-31T13:18:28.435Z,22.58
2022-08-31T13:20:56.955Z,22.53
2022-08-31T13:23:48.125Z,22.51
2022-08-31T13:26:25.868Z,22.49
2022-08-31T13:29:00.427Z,22.85
2022-08-31T13:31:51.275Z,22.89
2022-08-31T13:34:20.361Z,22.86
2022-08-31T13:36:53.166Z,22.87
2022-08-31T13:39:27.341Z,22.84
2022-08-31T13:42:09.143Z,22.82
2022-08-31T13:44:44.166Z,22.85
2022-08-31T13:47:20.203Z,22.80
2022-08-31T13:49:51.748Z,22.75
2022-08-31T13:52:29.280Z,22.69
2022-08-31T13:55:06.647Z,22.61
2022-08-31T13:57:38.625Z,22.56
2022-08-31T14:00:43.404Z,22.54
2022-08-31T14:03:29.987Z,22.58
2022-08-31T14:06:11.768Z,22.63
2022-08-31T14:08:39.295Z,22.65
2022-08-31T14:11:13.896Z,22.66
2022-08-31T14:13:49.094Z,22.74
2022-08-31T14:16:36.879Z,22.83
2022-08-31T14:19:04.224Z,22.88
2022-08-31T14:21:34.263Z,22.90
2022-08-31T14:24:07.747Z,23.02
2022-08-31T14:26:36.718Z,23.15
2022-08-31T14:29:10.846Z,23.25
2022-08-31T14:31:51.850Z,23.32
2022-08-31T14:34:32.221Z,23.37
2022-08-31T14:37:07.938Z,23.43
2022-08-31T14:39:43.591Z,23.44
2022-08-31T14:42:29.278Z,23.39
2022-08-31T14:45:18.303Z,23.38
2022-08-31T14:47:47.842Z,23.30
2022-08-31T14:50:18.218Z,23.25
2022-08-31T14:52:55.241Z,23.31
2022-08-31T14:55:24.574Z,23.31
2022-08-31T14:57:59.684Z,23.31
2022-08-31T15:00:31.751Z,23.25
2022-08-31T15:03:01.073Z,23.16
2022-08-31T15:05:27.618Z,23.10
2022-08-31T15:07:55.282Z,23.09
2022-08-31T15:10:25.334Z,23.07
2022-08-31T15:12:53.471Z,23.12
2022-08-31T15:15:20.752Z,23.19
2022-08-31T15:17:50.486Z,23.20
2022-08-31T15:20:19.631Z,23.25
2022-08-31T15:22:47.852Z,23.32
2022-08-31T15:25:15.138Z,23.29
2022-08-31T15:27:44.473Z,23.27
2022-08-31T15:30:12.750Z,23.27
2022-08-31T15:32:48.764Z,23.27
2022-08-31T15:35:23.438Z,23.25
2022-08-31T15:38:01.213Z,23.25
2022-08-31T15:40:35.484Z,23.27
2022-08-31T15:43:15.358Z,23.31
2022-08-31T15:45:41.952Z,23.40
2022-08-31T15:48:27.227Z,23.44
2022-08-31T15:51:00.114Z,23.45
2022-08-31T15:53:32.794Z,23.51
2022-08-31T15:56:06.293Z,23.46
2022-08-31T15:58:34.311Z,23.45
2022-08-31T16:01:01.592Z,23.47
2022-08-31T16:03:35.662Z,23.51
2022-08-31T16:06:05.030Z,23.51
2022-08-31T16:08:32.045Z,23.49
2022-08-31T16:10:59.066Z,23.49
2022-08-31T16:13:25.901Z,23.51
2022-08-31T16:15:52.891Z,23.51
2022-08-31T16:18:22.641Z,23.52
2022-08-31T16:20:50.677Z,23.56
2022-08-31T16:23:18.343Z,23.54
2022-08-31T20:45:46.722Z,20.82
2022-08-31T20:48:36.746Z,20.80
2022-08-31T20:51:16.133Z,20.75
2022-08-31T20:53:44.189Z,20.73
2022-08-31T20:56:17.072Z,20.72
2022-08-31T20:58:46.259Z,20.73
2022-08-31T21:01:14.342Z,20.70
2022-08-31T21:03:41.697Z,20.67
2022-08-31T21:06:12.311Z,20.66
2022-08-31T21:08:42.505Z,20.64
2022-08-31T21:11:11.395Z,20.66
2022-08-31T21:13:38.096Z,20.62
2022-08-31T21:16:04.901Z,20.57
2022-08-31T21:18:34.201Z,20.55
2022-08-31T21:21:06.713Z,20.55
2022-08-31T21:23:33.808Z,20.51
2022-08-31T21:26:01.052Z,20.47
2022-08-31T21:28:28.186Z,20.46
2022-08-31T21:31:27.533Z,20.41
2022-08-31T21:34:02.554Z,20.37
2022-08-31T21:36:32.847Z,20.32
2022-08-31T21:39:00.034Z,20.31
2022-08-31T21:41:29.855Z,20.27
2022-08-31T21:43:57.862Z,20.25
2022-08-31T21:46:27.793Z,20.19
2022-08-31T21:48:57.361Z,20.20
2022-08-31T21:51:27.621Z,20.15
2022-08-31T21:54:05.849Z,20.11
2022-08-31T21:56:37.101Z,20.09
2022-08-31T21:59:06.570Z,20.09
2022-08-31T22:01:35.293Z,20.04
2022-08-31T22:04:05.414Z,20.01
2022-08-31T22:06:32.317Z,19.97
2022-08-31T22:09:02.497Z,19.92
2022-08-31T22:11:31.757Z,19.89
2022-08-31T22:13:59.657Z,19.88
2022-08-31T22:16:27.933Z,19.85
2022-08-31T22:19:01.708Z,19.82
2022-08-31T22:21:32.156Z,19.74
2022-08-31T22:24:01.277Z,19.76
2022-08-31T22:26:31.056Z,19.71
2022-08-31T22:28:59.425Z,19.73
2022-08-31T22:31:27.551Z,19.73
2022-08-31T22:33:54.821Z,19.72
2022-08-31T22:36:31.737Z,19.69
2022-08-31T22:39:08.738Z,19.68
2022-08-31T22:41:37.425Z,19.64
2022-08-31T22:44:06.446Z,19.63
2022-08-31T22:46:33.854Z,19.58
2022-08-31T22:49:00.617Z,19.55
2022-08-31T22:51:27.434Z,19.51
2022-08-31T22:53:54.336Z,19.47
2022-08-31T22:56:27.016Z,19.42
2022-08-31T22:58:56.035Z,19.40
2022-08-31T23:01:28.774Z,19.37
2022-08-31T23:03:57.061Z,19.31
2022-08-31T23:06:24.890Z,19.27
2022-08-31T23:08:53.256Z,19.23
2022-08-31T23:11:20.923Z,19.27
2022-08-31T23:13:53.051Z,19.25
2022-08-31T23:16:23.168Z,19.24
2022-08-31T23:18:49.674Z,19.22
2022-08-31T23:21:18.021Z,19.18
2022-08-31T23:23:44.886Z,19.16
2022-08-31T23:26:11.803Z,19.15
2022-08-31T23:28:39.196Z,19.14
2022-08-31T23:31:10.796Z,19.11
2022-08-31T23:33:37.312Z,19.10
2022-08-31T23:36:03.873Z,19.05
2022-08-31T23:38:32.296Z,19.03
2022-08-31T23:40:58.755Z,19.01
2022-08-31T23:43:26.747Z,18.96
2022-08-31T23:45:59.027Z,18.94
2022-08-31T23:48:25.571Z,18.95
2022-08-31T23:50:52.113Z,19.01
2022-08-31T23:53:18.619Z,18.96
2022-08-31T23:55:45.733Z,18.98
2022-08-31T23:58:14.011Z,18.95
